createdAt,value
2023-03-30T00:01:02.319Z,11.80
2023-03-30T00:05:05.424Z,11.70
2023-03-30T00:09:07.250Z,11.70
2023-03-30T00:13:08.894Z,11.60
2023-03-30T00:17:10.548Z,11.50
2023-03-30T00:21:12.314Z,11.50
2023-03-30T00:25:16.568Z,11.60
2023-03-30T00:29:18.192Z,11.80
2023-03-30T00:33:27.576Z,11.80
2023-03-30T00:37:37.206Z,11.80
2023-03-30T00:41:39.373Z,11.80
2023-03-30T00:45:41.150Z,11.90
2023-03-30T00:49:43.994Z,11.90
2023-03-30T00:53:49.634Z,12.10
2023-03-30T00:57:52.734Z,11.90
2023-03-30T01:01:55.229Z,11.80
2023-03-30T01:05:59.772Z,11.80
2023-03-30T01:10:01.803Z,11.70
2023-03-30T01:14:07.511Z,11.80
2023-03-30T01:18:33.123Z,11.90
2023-03-30T01:22:50.115Z,11.90
2023-03-30T01:26:59.691Z,12.10
2023-03-30T01:31:25.447Z,12.20
2023-03-30T01:35:50.792Z,12.10
2023-03-30T01:40:00.554Z,12.20
2023-03-30T01:44:30.239Z,12.40
2023-03-30T01:48:45.585Z,12.50
2023-03-30T01:53:14.771Z,12.60
2023-03-30T01:57:21.489Z,12.80
2023-03-30T02:01:23.879Z,12.80
2023-03-30T02:05:27.856Z,12.90
2023-03-30T02:09:31.097Z,13.10
2023-03-30T02:13:33.883Z,13.20
2023-03-30T02:17:38.008Z,13.10
2023-03-30T02:21:39.836Z,13.20
2023-03-30T02:25:42.012Z,13.30
2023-03-30T02:29:45.192Z,13.30
2023-03-30T02:34:04.920Z,13.30
2023-03-30T02:38:36.993Z,13.20
2023-03-30T02:43:03.392Z,13.10
2023-03-30T02:47:22.109Z,12.90
2023-03-30T02:51:45.465Z,12.90
2023-03-30T02:56:13.601Z,13.00
2023-03-30T03:00:23.360Z,12.90
2023-03-30T03:04:28.392Z,13.20
2023-03-30T03:08:37.234Z,13.30
2023-03-30T03:12:39.302Z,13.40
2023-03-30T03:16:41.049Z,13.50
2023-03-30T03:20:42.909Z,13.40
2023-03-30T03:24:44.705Z,13.40
2023-03-30T03:28:46.612Z,13.30
2023-03-30T03:32:49.348Z,13.20
2023-03-30T03:36:53.344Z,13.30
2023-03-30T03:40:58.126Z,13.20
2023-03-30T03:44:59.970Z,13.20
2023-03-30T03:49:01.624Z,13.20
2023-03-30T03:53:03.748Z,13.40
2023-03-30T03:57:06.338Z,13.40
2023-03-30T04:01:08.336Z,13.00
2023-03-30T04:05:10.707Z,13.20
2023-03-30T04:09:12.401Z,13.10
2023-03-30T04:13:14.047Z,13.10
2023-03-30T04:17:15.793Z,12.90
2023-03-30T04:21:17.647Z,12.80
2023-03-30T04:25:25.666Z,12.80
2023-03-30T04:29:27.372Z,12.90
2023-03-30T04:33:29.530Z,13.00
2023-03-30T04:37:31.487Z,13.00
2023-03-30T04:41:33.591Z,13.00
2023-03-30T04:45:35.506Z,13.00
2023-03-30T04:49:37.327Z,13.20
2023-03-30T04:53:38.963Z,13.40
2023-03-30T04:57:40.731Z,13.60
2023-03-30T05:01:42.830Z,13.70
2023-03-30T05:05:44.596Z,14.00
2023-03-30T05:09:46.211Z,14.00
2023-03-30T05:13:50.528Z,14.10
2023-03-30T05:17:52.156Z,14.00
2023-03-30T05:21:53.969Z,14.10
2023-03-30T05:25:55.798Z,14.20
2023-03-30T05:29:57.694Z,14.20
2023-03-30T05:33:59.323Z,14.20
2023-03-30T05:38:00.983Z,14.10
2023-03-30T05:42:03.812Z,14.10
2023-03-30T05:46:05.923Z,14.20
2023-03-30T05:50:09.207Z,14.10
2023-03-30T05:54:12.605Z,14.10
2023-03-30T05:58:16.344Z,14.10
2023-03-30T06:02:18.032Z,14.10
2023-03-30T06:06:19.741Z,14.10
2023-03-30T06:10:21.404Z,14.10
2023-03-30T06:14:23.049Z,14.10
2023-03-30T06:18:24.964Z,14.10
2023-03-30T06:22:27.396Z,14.10
2023-03-30T06:26:30.513Z,14.00
2023-03-30T06:30:32.256Z,14.00
2023-03-30T06:34:33.873Z,14.00
2023-03-30T06:38:35.487Z,14.10
2023-03-30T06:42:37.227Z,14.00
2023-03-30T06:46:39.151Z,14.20
2023-03-30T06:50:40.897Z,14.30
2023-03-30T06:54:42.609Z,14.30
2023-03-30T06:58:45.567Z,14.30
2023-03-30T07:02:47.307Z,14.50
2023-03-30T07:06:49.001Z,14.40
2023-03-30T07:10:51.232Z,14.30
2023-03-30T07:14:54.161Z,14.30
2023-03-30T07:18:55.872Z,14.60
2023-03-30T07:22:57.515Z,14.50
2023-03-30T07:26:59.505Z,14.40
2023-03-30T07:31:06.585Z,14.30
2023-03-30T07:35:09.233Z,14.40
2023-03-30T07:39:11.026Z,14.30
2023-03-30T07:43:12.805Z,14.30
2023-03-30T07:47:15.145Z,14.30
2023-03-30T07:51:16.981Z,14.40
2023-03-30T07:55:18.967Z,14.40
2023-03-30T07:59:22.417Z,14.20
2023-03-30T08:03:25.095Z,14.10
2023-03-30T08:07:27.884Z,14.00
2023-03-30T08:11:29.541Z,13.80
2023-03-30T08:15:31.322Z,13.70
2023-03-30T08:19:32.966Z,13.70
2023-03-30T08:23:34.644Z,13.70
2023-03-30T08:27:36.601Z,13.70
2023-03-30T08:31:38.841Z,13.70
2023-03-30T08:35:41.427Z,13.80
2023-03-30T08:39:43.457Z,13.80
2023-03-30T08:43:57.048Z,13.90
2023-03-30T08:47:59.964Z,14.00
2023-03-30T08:52:04.339Z,14.10
2023-03-30T08:56:10.970Z,14.40
2023-03-30T09:00:44.701Z,14.80
2023-03-30T09:04:57.744Z,15.30
2023-03-30T09:08:59.629Z,15.50
2023-03-30T09:13:03.446Z,15.70
2023-03-30T09:17:21.038Z,15.60
2023-03-30T09:21:24.123Z,15.30
2023-03-30T09:25:35.759Z,14.60
2023-03-30T09:29:49.613Z,14.50
2023-03-30T09:34:02.842Z,14.10
2023-03-30T09:38:04.765Z,13.80
2023-03-30T09:42:45.457Z,13.60
2023-03-30T09:46:49.866Z,13.70
2023-03-30T09:50:52.268Z,14.20
2023-03-30T09:54:54.040Z,14.30
2023-03-30T09:58:56.294Z,13.90
2023-03-30T10:03:03.444Z,13.50
2023-03-30T10:07:18.097Z,13.40
2023-03-30T10:11:22.305Z,13.10
2023-03-30T10:15:30.980Z,13.10
2023-03-30T10:19:37.192Z,13.00
2023-03-30T10:23:44.357Z,13.00
2023-03-30T10:27:46.087Z,13.10
2023-03-30T10:31:49.930Z,13.30
2023-03-30T10:35:53.571Z,13.50
2023-03-30T10:39:55.499Z,13.60
2023-03-30T10:43:57.217Z,13.90
2023-03-30T10:48:27.097Z,14.10
2023-03-30T10:52:48.840Z,14.50
2023-03-30T10:57:02.854Z,14.70
2023-03-30T11:01:22.010Z,14.70
2023-03-30T11:05:32.594Z,15.30
2023-03-30T11:09:38.877Z,14.90
2023-03-30T11:13:49.668Z,15.80
2023-03-30T11:17:55.358Z,16.70
2023-03-30T11:22:33.665Z,17.70
2023-03-30T11:26:40.708Z,16.60
2023-03-30T11:30:44.227Z,16.10
2023-03-30T11:34:56.491Z,16.50
2023-03-30T11:39:11.804Z,16.00
2023-03-30T11:43:23.356Z,15.80
2023-03-30T11:47:35.084Z,15.70
2023-03-30T11:52:00.775Z,15.70
2023-03-30T11:56:06.789Z,16.00
2023-03-30T12:00:26.820Z,15.70
2023-03-30T12:04:47.409Z,15.40
2023-03-30T12:09:10.939Z,14.80
2023-03-30T12:13:15.309Z,14.20
2023-03-30T12:18:00.541Z,13.40
2023-03-30T12:22:13.781Z,12.80
2023-03-30T12:26:34.201Z,12.50
2023-03-30T12:30:58.054Z,12.30
2023-03-30T12:34:59.761Z,12.70
2023-03-30T12:39:05.629Z,13.00
2023-03-30T12:43:23.999Z,12.90
2023-03-30T12:47:33.362Z,12.60
2023-03-30T12:51:56.434Z,12.40
2023-03-30T12:56:07.475Z,12.30
2023-03-30T13:00:16.578Z,12.10
2023-03-30T13:04:23.984Z,12.00
2023-03-30T13:08:32.445Z,12.00
2023-03-30T13:12:42.284Z,12.20
2023-03-30T13:16:53.180Z,13.10
2023-03-30T13:20:55.023Z,13.90
2023-03-30T13:25:17.913Z,15.30
2023-03-30T13:29:23.716Z,16.60
2023-03-30T13:33:27.263Z,18.20
2023-03-30T13:38:04.224Z,18.00
2023-03-30T13:42:16.784Z,16.80
2023-03-30T13:46:42.012Z,15.90
2023-03-30T13:50:54.501Z,15.60
2023-03-30T13:54:56.669Z,15.80
2023-03-30T13:59:09.590Z,15.70
2023-03-30T14:03:38.449Z,15.90
2023-03-30T14:07:47.080Z,16.90
2023-03-30T14:11:54.892Z,18.30
2023-03-30T14:15:56.821Z,18.80
2023-03-30T14:20:37.323Z,18.80
2023-03-30T14:24:39.028Z,19.00
2023-03-30T14:28:42.385Z,18.80
2023-03-30T14:32:44.264Z,18.20
2023-03-30T14:36:46.375Z,17.60
2023-03-30T14:40:49.286Z,17.40
2023-03-30T14:44:53.887Z,16.90
2023-03-30T14:48:56.004Z,16.60
2023-03-30T14:52:57.928Z,16.20
2023-03-30T14:57:01.605Z,15.70
2023-03-30T15:01:09.754Z,15.40
2023-03-30T15:05:12.108Z,15.90
2023-03-30T15:09:19.676Z,16.00
2023-03-30T15:13:57.656Z,15.90
2023-03-30T15:18:00.061Z,15.70
2023-03-30T15:22:19.047Z,15.60
2023-03-30T15:26:21.215Z,15.40
2023-03-30T15:30:35.422Z,15.00
2023-03-30T15:34:37.570Z,14.80
2023-03-30T15:38:51.356Z,14.50
2023-03-30T15:43:33.273Z,14.10
2023-03-30T15:47:35.425Z,13.70
2023-03-30T15:51:42.717Z,13.60
2023-03-30T15:55:50.648Z,13.40
2023-03-30T15:59:56.966Z,13.40
2023-03-30T16:04:01.507Z,13.40
2023-03-30T16:08:04.951Z,13.50
2023-03-30T16:12:08.546Z,13.60
2023-03-30T16:16:11.835Z,13.60
2023-03-30T16:20:19.048Z,13.50
2023-03-30T16:24:20.892Z,13.50
2023-03-30T16:28:22.594Z,13.40
2023-03-30T16:36:28.049Z,13.40
2023-03-30T16:40:45.194Z,13.30
2023-03-30T16:44:46.866Z,13.20
2023-03-30T16:48:48.615Z,13.10
2023-03-30T16:52:51.081Z,13.10
2023-03-30T16:56:52.822Z,13.20
2023-03-30T17:01:02.781Z,13.00
2023-03-30T17:05:05.154Z,12.90
2023-03-30T17:09:12.533Z,12.80
2023-03-30T17:13:14.295Z,12.60
2023-03-30T17:17:16.029Z,12.30
2023-03-30T17:21:17.732Z,12.10
2023-03-30T17:25:23.175Z,12.00
2023-03-30T17:29:25.045Z,11.90
2023-03-30T17:33:27.161Z,11.80
2023-03-30T17:37:28.828Z,11.80
2023-03-30T17:41:33.517Z,11.80
2023-03-30T17:45:35.575Z,11.70
2023-03-30T17:49:39.145Z,11.70
2023-03-30T17:53:40.879Z,11.70
2023-03-30T17:57:42.648Z,11.60
2023-03-30T18:01:44.510Z,11.60
2023-03-30T18:05:47.790Z,11.60
2023-03-30T18:09:49.487Z,11.50
2023-03-30T18:13:53.549Z,11.50
2023-03-30T18:17:57.193Z,11.50
2023-03-30T18:21:58.931Z,11.50
2023-03-30T18:26:01.841Z,11.30
2023-03-30T18:30:21.310Z,11.10
2023-03-30T18:34:23.019Z,11.10
2023-03-30T18:38:25.500Z,11.00
2023-03-30T18:42:27.377Z,11.00
2023-03-30T18:46:29.156Z,11.00
2023-03-30T18:50:39.799Z,11.00
2023-03-30T18:54:41.534Z,11.00
2023-03-30T18:58:43.608Z,11.00
2023-03-30T19:02:45.852Z,10.90
2023-03-30T19:06:47.968Z,10.90
2023-03-30T19:10:55.099Z,11.10
2023-03-30T19:14:57.444Z,11.10
2023-03-30T19:18:59.519Z,11.10
2023-03-30T19:23:01.518Z,11.20
2023-03-30T19:27:07.527Z,11.20
2023-03-30T19:31:16.165Z,11.20
2023-03-30T19:35:18.435Z,11.10
2023-03-30T19:39:20.641Z,11.30
2023-03-30T19:43:22.314Z,11.50
2023-03-30T19:47:24.640Z,11.60
2023-03-30T19:51:26.358Z,11.50
2023-03-30T19:55:28.549Z,11.50
2023-03-30T19:59:30.264Z,11.50
2023-03-30T20:03:32.108Z,11.60
2023-03-30T20:07:33.920Z,11.60
2023-03-30T20:11:35.686Z,11.50
2023-03-30T20:15:37.380Z,11.60
2023-03-30T20:19:40.631Z,11.60
2023-03-30T20:23:42.328Z,11.60
2023-03-30T20:27:44.048Z,11.50
2023-03-30T20:31:46.310Z,11.40
2023-03-30T20:35:51.480Z,11.30
2023-03-30T20:39:53.285Z,11.30
2023-03-30T20:43:57.309Z,11.40
2023-03-30T20:48:06.039Z,11.40
2023-03-30T20:52:07.986Z,11.30
2023-03-30T20:56:10.918Z,11.30
2023-03-30T21:00:13.640Z,11.20
2023-03-30T21:04:15.921Z,11.10
2023-03-30T21:08:17.956Z,11.00
2023-03-30T21:12:20.596Z,11.10
2023-03-30T21:16:24.642Z,11.00
2023-03-30T21:20:26.363Z,10.90
2023-03-30T21:24:28.430Z,10.90
2023-03-30T21:28:30.956Z,10.70
2023-03-30T21:32:32.600Z,10.60
2023-03-30T21:36:34.484Z,10.80
2023-03-30T21:40:36.349Z,10.70
2023-03-30T21:44:38.089Z,10.70
2023-03-30T21:48:41.726Z,10.60
2023-03-30T21:52:43.442Z,10.50
2023-03-30T21:56:45.896Z,10.60
2023-03-30T22:00:53.293Z,10.60
2023-03-30T22:04:59.934Z,10.60
2023-03-30T22:09:01.628Z,10.70
2023-03-30T22:13:04.072Z,10.80
2023-03-30T22:17:07.681Z,10.90
2023-03-30T22:21:13.358Z,11.00
2023-03-30T22:25:17.276Z,11.00
2023-03-30T22:29:20.694Z,11.00
2023-03-30T22:33:22.549Z,11.10
2023-03-30T22:37:25.220Z,11.20
2023-03-30T22:41:27.570Z,11.10
2023-03-30T22:45:30.489Z,11.10
2023-03-30T22:49:32.325Z,11.20
2023-03-30T22:53:34.338Z,11.10
2023-03-30T22:57:36.150Z,11.10
2023-03-30T23:01:39.143Z,11.10
2023-03-30T23:05:40.978Z,11.00
2023-03-30T23:09:47.186Z,11.20
2023-03-30T23:13:50.202Z,11.10
2023-03-30T23:17:52.012Z,11.10
2023-03-30T23:21:54.330Z,11.00
2023-03-30T23:25:58.200Z,10.90
2023-03-30T23:30:00.207Z,10.70
2023-03-30T23:34:02.017Z,10.60
2023-03-30T23:38:04.436Z,10.50
2023-03-30T23:42:06.902Z,10.50
2023-03-30T23:46:09.911Z,10.60
2023-03-30T23:50:12.110Z,10.50
2023-03-30T23:54:15.699Z,10.40
2023-03-30T23:58:18.202Z,10.30
